Mc Cune, Kansas
Current Conditions -  °F | °C
As of 9:55 PM on Saturday 24 Jan 2015 (Local Time) from KPTS Reporting Station
Broken Clouds Broken Clouds  
Wind Chill: 51°   Ceiling: 12000
Heat Index: 51°   Visibility: 10mi
Dew Point: 34°   Wind: 14mph
Humidity: 51%   Direction: 240°WSW
Pressure: 29.78"   Gusts: NA
Location:  37.3318°N, 95.0213°W
Report Text: KPTS 250355Z AUTO 24012KT 10SM SCT095 BKN120 11/01 A2978 RMK AO2 T01080010
Loading
Personal Weather Stations






























Interactive Weather Map New forecast layout! Learn more

10-Day Weather Forecast

Advertisements
Track Severe Weather on mobile